Time;durP1;ratioP1;P1;durP2;ratioP2;P2;SDS_P1;SDS_P2;PMS_P1;PMS_P2;Temp;Humidity;BMP_temperature;BMP_pressure;BME280_temperature;BME280_humidity;BME280_pressure;Samples;Min_cycle;Max_cycle;Signal;HPM_P1;HPM_P2
2022/01/23 00:00:17;;;;;;;3.03;2.13;;;;;;;20.37;24.20;100733.53;5110336;28;20131;-57
2022/01/23 00:02:37;;;;;;;3.38;2.28;;;;;;;20.38;24.08;100726.00;5109669;28;20055;-57
2022/01/23 00:05:07;;;;;;;3.72;2.25;;;;;;;20.35;24.23;100731.06;5110798;28;20039;-57
2022/01/23 00:07:33;;;;;;;3.38;2.20;;;;;;;20.36;24.29;100734.69;5110222;28;20058;-57
2022/01/23 00:10:06;;;;;;;4.00;2.47;;;;;;;20.34;24.26;100728.66;5110363;28;20067;-57
2022/01/23 00:12:37;;;;;;;3.28;2.25;;;;;;;20.37;24.26;100741.06;5110733;28;20664;-57
2022/01/23 00:17:47;;;;;;;3.20;1.95;;;;;;;20.36;24.22;100743.03;5110977;28;20593;-57
2022/01/23 00:20:13;;;;;;;3.08;2.10;;;;;;;20.34;24.14;100739.75;5110394;28;20130;-57
2022/01/23 00:22:49;;;;;;;3.63;2.45;;;;;;;20.34;24.27;100740.56;5110217;28;20055;-57
2022/01/23 00:30:45;;;;;;;3.50;2.30;;;;;;;20.33;24.04;100747.28;5110101;28;20058;-57
2022/01/23 00:33:12;;;;;;;2.95;2.10;;;;;;;20.31;24.21;100734.91;5110563;28;20043;-57
2022/01/23 00:35:39;;;;;;;2.95;2.10;;;;;;;20.31;24.25;100741.25;5110620;28;20054;-57
2022/01/23 00:38:07;;;;;;;4.18;2.33;;;;;;;20.31;24.19;100749.59;5110057;28;20039;-57
2022/01/23 00:40:34;;;;;;;3.30;2.10;;;;;;;20.33;24.18;100740.91;5110217;28;20134;-57
2022/01/23 00:43:00;;;;;;;3.40;2.20;;;;;;;20.31;24.23;100734.91;5110468;28;20582;-57
2022/01/23 00:47:59;;;;;;;2.95;2.15;;;;;;;20.33;24.22;100743.69;5110390;28;20047;-57
2022/01/23 00:50:26;;;;;;;3.40;2.30;;;;;;;20.37;24.24;100735.50;5110081;28;20407;-57
2022/01/23 00:52:51;;;;;;;3.05;2.22;;;;;;;20.43;24.24;100734.13;5110010;28;20541;-57
2022/01/23 00:55:17;;;;;;;3.42;2.38;;;;;;;20.47;24.07;100741.47;5110085;28;20571;-57
2022/01/23 00:57:42;;;;;;;3.75;2.42;;;;;;;20.49;24.30;100741.13;5110026;28;20036;-57
2022/01/23 01:00:12;;;;;;;3.40;2.50;;;;;;;20.49;24.11;100738.34;5109204;28;20054;-58
2022/01/23 01:02:37;;;;;;;3.42;2.28;;;;;;;20.51;24.30;100741.63;5092146;28;20039;-58
2022/01/23 01:05:03;;;;;;;3.58;2.35;;;;;;;20.51;24.16;100736.88;5109942;28;20047;-58
2022/01/23 01:07:29;;;;;;;3.80;2.63;;;;;;;20.51;24.17;100738.84;5109484;28;20126;-57
2022/01/23 01:09:59;;;;;;;3.42;2.25;;;;;;;20.50;24.28;100731.63;5109736;28;20040;-57
2022/01/23 01:12:33;;;;;;;3.53;2.42;;;;;;;20.48;24.33;100723.66;5110040;28;20040;-57
2022/01/23 01:15:26;;;;;;;3.67;2.60;;;;;;;20.47;24.25;100726.78;5106022;28;20048;-49
2022/01/23 01:31:30;;;;;;;3.90;2.50;;;;;;;20.41;24.27;100736.44;5087829;28;20059;-48
2022/01/23 01:34:10;;;;;;;4.63;2.80;;;;;;;20.40;24.28;100721.72;5089233;28;20044;-48
2022/01/23 01:36:47;;;;;;;4.32;3.17;;;;;;;20.39;24.32;100722.88;5088571;28;20055;-48
2022/01/23 01:39:15;;;;;;;4.20;2.83;;;;;;;20.38;24.12;100729.59;5088642;28;20051;-47
2022/01/23 01:41:41;;;;;;;4.07;2.80;;;;;;;20.38;24.21;100717.69;5085189;28;20044;-49
2022/01/23 01:44:07;;;;;;;3.75;2.55;;;;;;;20.37;24.33;100729.94;5088734;28;20044;-47
2022/01/23 01:46:33;;;;;;;4.22;2.88;;;;;;;20.34;24.34;100718.34;5089256;28;20400;-47
2022/01/23 01:48:59;;;;;;;3.50;2.40;;;;;;;20.36;24.26;100729.16;5089156;28;20048;-48
2022/01/23 01:51:30;;;;;;;4.82;3.20;;;;;;;20.35;24.22;100727.50;5088219;28;20036;-47
2022/01/23 01:54:05;;;;;;;3.97;2.92;;;;;;;20.35;24.14;100733.03;5088976;28;20040;-47
2022/01/23 01:56:38;;;;;;;4.03;2.75;;;;;;;20.35;24.31;100731.06;5088977;28;20040;-48
2022/01/23 02:12:26;;;;;;;4.95;3.47;;;;;;;20.30;24.18;100722.97;5108637;28;20062;-48
2022/01/23 02:23:08;;;;;;;4.18;3.15;;;;;;;20.28;24.33;100722.47;5109159;28;20185;-47
2022/01/23 02:50:36;;;;;;;4.35;3.00;;;;;;;20.27;24.28;100726.41;5105246;28;20074;-47
2022/01/23 02:55:48;;;;;;;4.68;3.17;;;;;;;20.23;24.43;100714.38;5112145;28;20149;-47
2022/01/23 02:58:20;;;;;;;4.22;2.75;;;;;;;20.22;24.35;100718.31;5111793;28;20512;-47
2022/01/23 03:01:02;;;;;;;4.60;3.05;;;;;;;20.23;24.49;100713.56;5110862;28;20078;-46
2022/01/23 03:03:28;;;;;;;4.13;2.70;;;;;;;20.22;24.28;100707.19;5111465;28;20096;-47
2022/01/23 03:26:03;;;;;;;4.03;2.90;;;;;;;20.23;24.22;100706.03;5048578;28;20452;-57
2022/01/23 03:28:17;;;;;;;3.97;2.92;;;;;;;20.33;24.23;100711.16;5040360;28;20052;-58
2022/01/23 03:33:26;;;;;;;3.78;2.65;;;;;;;20.40;24.19;100702.28;5048318;28;20056;-58
2022/01/23 03:35:52;;;;;;;3.47;2.25;;;;;;;20.41;24.10;100711.44;5048379;28;20041;-58
2022/01/23 03:38:17;;;;;;;3.97;2.83;;;;;;;20.41;24.39;100703.09;5047700;28;20049;-58
2022/01/23 03:40:43;;;;;;;4.18;3.03;;;;;;;20.41;24.12;100709.47;5048008;28;20044;-58
2022/01/23 03:43:11;;;;;;;4.13;3.13;;;;;;;20.41;24.21;100708.66;5047638;28;20053;-49
2022/01/23 03:50:38;;;;;;;4.05;3.03;;;;;;;20.37;24.07;100708.53;5090391;28;20055;-48
2022/01/23 03:53:05;;;;;;;4.18;3.00;;;;;;;20.36;24.23;100715.25;5089648;28;20499;-48
2022/01/23 03:55:31;;;;;;;4.80;3.28;;;;;;;20.34;24.24;100718.34;5090382;28;20051;-50
2022/01/23 03:57:56;;;;;;;4.05;3.03;;;;;;;20.35;24.05;100719.16;5090580;28;20032;-50
2022/01/23 04:00:23;;;;;;;4.40;3.00;;;;;;;20.32;24.11;100717.88;5090124;28;20086;-49
2022/01/23 04:02:49;;;;;;;4.53;3.20;;;;;;;20.31;24.23;100721.81;5089977;28;20639;-50
2022/01/23 04:05:14;;;;;;;4.05;2.92;;;;;;;20.32;24.11;100726.22;5090734;28;20088;-51
2022/01/23 04:07:40;;;;;;;4.72;3.42;;;;;;;20.30;24.24;100720.19;5089893;28;20040;-48
2022/01/23 04:10:07;;;;;;;4.70;3.25;;;;;;;20.30;24.19;100719.38;5090132;28;20043;-50
2022/01/23 04:34:11;;;;;;;4.65;3.13;;;;;;;20.24;24.34;100710.44;5089559;28;20553;-56
2022/01/23 04:45:26;;;;;;;4.65;3.45;;;;;;;20.20;24.31;100709.47;5007076;28;20084;-56
2022/01/23 05:01:33;;;;;;;5.57;4.10;;;;;;;20.17;24.31;100685.16;5007365;28;20129;-57
2022/01/23 05:06:41;;;;;;;4.80;3.55;;;;;;;20.16;24.33;100674.41;5006755;28;20100;-47
2022/01/23 05:09:08;;;;;;;5.20;3.42;;;;;;;20.18;24.26;100678.44;5007144;28;20060;-49
2022/01/23 05:11:35;;;;;;;5.00;3.72;;;;;;;20.16;24.40;100683.53;5006870;28;20501;-48
2022/01/23 05:14:02;;;;;;;4.70;3.72;;;;;;;20.16;24.39;100685.50;5005244;28;20623;-47
2022/01/23 05:16:30;;;;;;;5.20;3.50;;;;;;;20.16;24.26;100686.31;5089212;28;20067;-48
2022/01/23 05:18:56;;;;;;;4.70;3.63;;;;;;;20.15;24.36;100681.91;5089080;28;20069;-57
2022/01/23 05:21:50;;;;;;;5.20;3.90;;;;;;;20.15;24.32;100684.69;5088804;28;20040;-49
2022/01/23 05:24:10;;;;;;;4.47;3.58;;;;;;;20.15;24.46;100673.59;5087225;28;20688;-46
2022/01/23 05:26:42;;;;;;;5.05;3.97;;;;;;;20.16;24.35;100677.97;5088815;28;20063;-46
2022/01/23 05:29:09;;;;;;;5.63;3.90;;;;;;;20.15;24.40;100679.13;5086686;28;20416;-46
2022/01/23 05:31:34;;;;;;;5.78;3.97;;;;;;;20.14;24.26;100683.03;5088576;28;20040;-48
2022/01/23 05:33:59;;;;;;;4.93;3.55;;;;;;;20.13;24.31;100683.38;5088340;28;20062;-47
2022/01/23 05:36:25;;;;;;;5.13;3.72;;;;;;;20.13;24.26;100686.16;5109053;28;20511;-49
2022/01/23 05:38:50;;;;;;;5.50;3.72;;;;;;;20.13;24.44;100686.16;5109253;28;20039;-48
2022/01/23 05:41:16;;;;;;;4.75;3.40;;;;;;;20.14;24.31;100687.78;5108993;28;20400;-47
2022/01/23 05:43:41;;;;;;;5.32;3.58;;;;;;;20.19;24.24;100687.59;5108521;28;20612;-49
2022/01/23 05:46:07;;;;;;;4.97;3.83;;;;;;;20.26;24.37;100679.53;5109026;28;20031;-49
2022/01/23 05:48:32;;;;;;;4.20;3.20;;;;;;;20.29;24.19;100682.44;5108966;28;20514;-48
2022/01/23 05:50:58;;;;;;;4.43;3.10;;;;;;;20.32;24.29;100686.50;5108215;28;20040;-47
2022/01/23 05:53:23;;;;;;;5.00;3.58;;;;;;;20.34;24.19;100687.78;5108908;28;20044;-47
2022/01/23 05:55:48;;;;;;;4.22;3.05;;;;;;;20.34;24.31;100681.41;5108784;28;20043;-47
2022/01/23 05:58:14;;;;;;;4.30;3.35;;;;;;;20.34;24.29;100682.22;5108461;28;20397;-48
2022/01/23 06:00:39;;;;;;;4.60;3.38;;;;;;;20.32;24.34;100684.53;5108937;28;20353;-48
2022/01/23 06:03:05;;;;;;;4.57;3.20;;;;;;;20.32;24.26;100684.53;5108329;28;20035;-50
2022/01/23 06:05:30;;;;;;;5.03;3.50;;;;;;;20.30;24.14;100681.28;5105429;28;20457;-57
2022/01/23 06:07:56;;;;;;;4.20;3.15;;;;;;;20.29;24.19;100684.41;5108281;28;20054;-58
2022/01/23 06:10:24;;;;;;;4.20;3.00;;;;;;;20.27;24.21;100689.47;5108595;28;20043;-58
2022/01/23 06:12:50;;;;;;;4.53;3.45;;;;;;;20.27;24.11;100695.84;5107969;28;20119;-58
2022/01/23 06:15:16;;;;;;;4.43;3.08;;;;;;;20.27;24.19;100697.81;5108523;28;20216;-57
2022/01/23 06:17:42;;;;;;;4.38;3.00;;;;;;;20.26;24.24;100701.75;5108623;28;20058;-58
2022/01/23 06:20:10;;;;;;;4.45;3.05;;;;;;;20.23;24.29;100697.69;5108004;28;20126;-57
2022/01/23 06:22:35;;;;;;;3.97;3.00;;;;;;;20.23;24.17;100711.59;5108342;28;20063;-57
2022/01/23 06:25:03;;;;;;;4.22;3.10;;;;;;;20.24;24.18;100716.00;5108497;28;20048;-58
2022/01/23 06:27:29;;;;;;;3.83;2.85;;;;;;;20.21;24.30;100716.66;5111541;28;20047;-58
2022/01/23 06:29:55;;;;;;;4.45;2.90;;;;;;;20.20;24.22;100726.13;5111918;28;20092;-57
2022/01/23 06:32:20;;;;;;;3.53;2.53;;;;;;;20.21;24.18;100736.09;5112047;28;20581;-58
2022/01/23 06:34:46;;;;;;;3.47;2.50;;;;;;;20.18;24.26;100734.00;5111387;28;20051;-57
2022/01/23 06:37:12;;;;;;;3.78;2.78;;;;;;;20.17;24.35;100729.59;5111962;28;20126;-50
2022/01/23 06:39:38;;;;;;;4.55;3.00;;;;;;;20.19;24.25;100735.63;5111884;28;20452;-48
2022/01/23 06:42:04;;;;;;;3.63;2.83;;;;;;;20.17;24.13;100737.94;5111968;28;20055;-49
2022/01/23 06:44:29;;;;;;;3.63;2.55;;;;;;;20.16;24.12;100736.31;5111194;28;20050;-47
2022/01/23 06:46:55;;;;;;;4.25;3.00;;;;;;;20.15;24.21;100737.47;5111850;28;20048;-47
2022/01/23 06:49:20;;;;;;;3.40;2.60;;;;;;;20.15;24.41;100737.47;5111574;28;20418;-47
2022/01/23 06:51:47;;;;;;;3.88;2.53;;;;;;;20.16;24.39;100741.06;5111130;28;20055;-47
2022/01/23 06:54:13;;;;;;;3.67;2.67;;;;;;;20.14;24.34;100733.03;5111678;28;20078;-50
2022/01/23 06:56:39;;;;;;;4.10;2.92;;;;;;;20.14;24.18;100749.72;5111718;28;20089;-48
2022/01/23 06:59:04;;;;;;;3.95;2.92;;;;;;;20.14;24.42;100749.72;5111589;28;20067;-49
2022/01/23 07:01:30;;;;;;;3.55;2.63;;;;;;;20.14;24.25;100749.72;5112033;28;20078;-57
2022/01/23 07:03:55;;;;;;;3.83;2.70;;;;;;;20.13;24.31;100753.66;5111996;28;20130;-57
2022/01/23 07:06:21;;;;;;;4.00;2.92;;;;;;;20.13;24.22;100750.88;5111184;28;20047;-57
2022/01/23 07:08:46;;;;;;;3.95;2.97;;;;;;;20.10;24.19;100748.78;5111872;28;20035;-58
2022/01/23 07:11:12;;;;;;;3.35;2.60;;;;;;;20.14;24.39;100760.00;5111664;28;20052;-57
2022/01/23 07:13:37;;;;;;;4.15;2.80;;;;;;;20.11;24.37;100753.19;5111193;28;20403;-57
2022/01/23 07:16:04;;;;;;;4.95;3.15;;;;;;;20.12;24.35;100771.47;5111529;28;20043;-57
2022/01/23 07:18:30;;;;;;;3.97;2.65;;;;;;;20.12;24.56;100762.31;5111620;28;20047;-58
2022/01/23 07:20:56;;;;;;;4.15;3.00;;;;;;;20.10;24.32;100759.88;5111297;28;20040;-58
2022/01/23 07:23:22;;;;;;;3.85;2.90;;;;;;;20.10;24.20;100757.09;5111674;28;20044;-58
2022/01/23 07:25:48;;;;;;;3.97;3.00;;;;;;;20.08;24.33;100753.88;5111701;28;20046;-58
2022/01/23 07:28:17;;;;;;;3.90;3.03;;;;;;;20.09;24.25;100758.28;5111034;28;20047;-58
2022/01/23 07:30:57;;;;;;;3.70;2.60;;;;;;;20.09;24.45;100758.28;5111600;28;20108;-58
2022/01/23 07:33:22;;;;;;;4.10;2.90;;;;;;;20.09;24.23;100749.94;5111534;28;20122;-58
2022/01/23 07:35:48;;;;;;;4.35;3.17;;;;;;;20.09;24.24;100749.94;5110826;28;20127;-58
2022/01/23 07:38:17;;;;;;;4.18;3.00;;;;;;;20.06;24.22;100745.03;5110683;28;20130;-58
2022/01/23 07:40:46;;;;;;;4.47;2.88;;;;;;;20.08;24.30;100750.28;5111485;28;20066;-58
2022/01/23 07:43:12;;;;;;;3.80;2.90;;;;;;;20.07;24.32;100749.44;5111074;28;20058;-58
2022/01/23 07:45:39;;;;;;;4.30;2.97;;;;;;;20.07;24.26;100749.44;5111051;28;20052;-58
2022/01/23 07:48:04;;;;;;;4.30;2.85;;;;;;;20.07;24.11;100760.53;5111266;28;20418;-57
2022/01/23 07:50:30;;;;;;;4.65;3.15;;;;;;;20.06;24.35;100753.38;5110730;28;20032;-58
2022/01/23 07:52:56;;;;;;;4.22;2.92;;;;;;;20.06;24.22;100753.38;5111243;28;20051;-58
2022/01/23 07:55:21;;;;;;;4.00;3.03;;;;;;;20.06;24.24;100758.91;5111252;28;20046;-58
2022/01/23 07:57:47;;;;;;;4.10;3.13;;;;;;;20.06;24.36;100753.38;5110347;28;20454;-59
2022/01/23 08:00:13;;;;;;;3.90;2.90;;;;;;;20.06;24.20;100756.97;5110830;28;20504;-58
2022/01/23 08:02:40;;;;;;;4.70;3.25;;;;;;;20.14;24.24;100760.81;5110712;28;20074;-58
2022/01/23 08:05:06;;;;;;;3.80;2.75;;;;;;;20.19;24.10;100763.41;5110075;28;20513;-58
2022/01/23 08:07:32;;;;;;;5.65;2.80;;;;;;;20.24;24.22;100760.44;5110283;28;20047;-58
2022/01/23 08:10:03;;;;;;;3.78;2.70;;;;;;;20.28;24.18;100775.25;5110432;28;20042;-58
2022/01/23 08:12:29;;;;;;;4.35;2.90;;;;;;;20.29;24.28;100773.31;5109865;28;20054;-58
2022/01/23 08:14:56;;;;;;;3.88;2.78;;;;;;;20.28;24.20;100772.50;5110548;28;20043;-58
2022/01/23 08:17:24;;;;;;;4.57;3.20;;;;;;;20.29;24.28;100765.00;5110035;28;20104;-58
2022/01/23 08:19:56;;;;;;;5.35;3.45;;;;;;;20.27;24.13;100770.88;5109960;28;20086;-57
2022/01/23 08:22:24;;;;;;;4.15;3.20;;;;;;;20.26;24.27;100766.47;5110462;28;20048;-58
2022/01/23 08:24:50;;;;;;;4.40;3.17;;;;;;;20.25;24.29;100767.63;5110393;28;20048;-58
2022/01/23 08:27:16;;;;;;;4.25;3.03;;;;;;;20.24;24.23;100763.22;5109218;28;20392;-57
2022/01/23 08:29:42;;;;;;;4.57;3.30;;;;;;;20.24;24.29;100770.75;5110114;28;20054;-58
2022/01/23 08:32:09;;;;;;;4.60;3.42;;;;;;;20.22;24.32;100771.09;5110090;28;20052;-58
2022/01/23 08:34:35;;;;;;;4.10;3.08;;;;;;;20.21;24.33;100763.88;5109768;28;20052;-57
2022/01/23 08:37:05;;;;;;;4.68;3.55;;;;;;;20.20;24.37;100776.16;5109974;28;20092;-58
2022/01/23 08:39:34;;;;;;;4.28;3.25;;;;;;;20.21;24.28;100780.53;5109989;28;20051;-58
2022/01/23 08:42:02;;;;;;;4.45;3.47;;;;;;;20.19;24.39;100771.75;5109515;28;20087;-57
2022/01/23 08:44:28;;;;;;;3.83;3.08;;;;;;;20.18;24.34;100761.78;5110247;28;20079;-50
2022/01/23 08:46:54;;;;;;;4.85;3.50;;;;;;;20.18;24.38;100764.56;5110084;28;20351;-49
2022/01/23 08:49:22;;;;;;;4.75;3.53;;;;;;;20.16;24.33;100755.75;5108362;28;20563;-47
2022/01/23 08:51:49;;;;;;;4.55;3.20;;;;;;;20.17;24.49;100762.94;5105896;28;20086;-48
2022/01/23 08:54:15;;;;;;;4.15;3.30;;;;;;;20.16;24.48;100764.09;5110066;28;20036;-48
2022/01/23 08:56:42;;;;;;;4.93;3.45;;;;;;;20.16;24.48;100755.75;5109918;28;20100;-48
2022/01/23 08:59:08;;;;;;;4.90;3.70;;;;;;;20.17;24.37;100762.94;5109734;28;20078;-49
2022/01/23 09:01:35;;;;;;;4.68;3.40;;;;;;;20.16;24.52;100766.88;5109955;28;20398;-49
2022/01/23 09:04:01;;;;;;;4.95;3.70;;;;;;;20.15;24.59;100759.69;5109773;28;20408;-49
2022/01/23 09:06:27;;;;;;;4.68;3.53;;;;;;;20.17;24.52;100756.56;5109513;28;20031;-51
2022/01/23 09:08:54;;;;;;;4.88;3.72;;;;;;;20.16;24.43;100758.53;5109749;28;20473;-48
2022/01/23 09:14:07;;;;;;;4.82;3.53;;;;;;;20.16;24.55;100775.22;5109302;28;20058;-58
2022/01/23 09:16:38;;;;;;;4.85;3.58;;;;;;;20.14;24.62;100765.56;5109362;28;20104;-58
2022/01/23 09:19:04;;;;;;;4.82;3.63;;;;;;;20.16;24.52;100766.06;5109571;28;20048;-51
2022/01/23 09:21:30;;;;;;;5.28;3.72;;;;;;;20.14;24.52;100755.28;5109513;28;20065;-58
2022/01/23 09:23:56;;;;;;;4.85;3.63;;;;;;;20.14;24.42;100751.69;5109949;28;20409;-58
2022/01/23 09:26:23;;;;;;;4.70;3.40;;;;;;;20.16;24.41;100757.72;5109419;28;20055;-58
2022/01/23 09:28:49;;;;;;;4.82;3.65;;;;;;;20.15;24.41;100751.38;5108766;28;20119;-58
2022/01/23 09:31:25;;;;;;;4.95;3.40;;;;;;;20.15;24.58;100742.22;5109556;28;20135;-58
2022/01/23 09:33:51;;;;;;;4.63;3.40;;;;;;;20.14;24.58;100751.69;5109725;28;20052;-58
2022/01/23 09:36:16;;;;;;;4.63;3.42;;;;;;;20.15;24.53;100751.38;5109182;28;20054;-58
2022/01/23 09:38:41;;;;;;;5.10;3.40;;;;;;;20.15;24.47;100748.59;5109349;28;20418;-58
2022/01/23 09:41:08;;;;;;;4.40;3.42;;;;;;;20.16;24.57;100758.53;5109553;28;20078;-58
2022/01/23 09:43:39;;;;;;;4.60;3.30;;;;;;;20.16;24.52;100754.94;5108691;28;20468;-58
2022/01/23 09:46:07;;;;;;;4.60;3.42;;;;;;;20.16;24.43;100755.75;5109580;28;20051;-58
2022/01/23 09:48:34;;;;;;;4.30;3.50;;;;;;;20.15;24.56;100754.16;5109291;28;20051;-58
2022/01/23 09:51:00;;;;;;;3.85;3.22;;;;;;;20.15;24.50;100745.00;5108819;28;20075;-58
2022/01/23 09:53:27;;;;;;;4.60;3.38;;;;;;;20.15;24.56;100751.38;5109155;28;20069;-58
2022/01/23 09:55:58;;;;;;;4.57;3.05;;;;;;;20.16;24.75;100760.50;5109412;28;20054;-58
2022/01/23 09:58:23;;;;;;;4.10;3.25;;;;;;;20.15;24.60;100753.34;5108690;28;20142;-58
2022/01/23 10:00:49;;;;;;;4.78;3.50;;;;;;;20.16;24.61;100758.53;5108722;28;20126;-58
2022/01/23 10:03:19;;;;;;;4.78;3.40;;;;;;;20.16;24.49;100753.00;5109251;28;20415;-58
2022/01/23 10:05:52;;;;;;;4.07;3.03;;;;;;;20.17;24.47;100753.78;5108893;28;20090;-58
2022/01/23 10:08:18;;;;;;;4.60;3.10;;;;;;;20.17;24.52;100743.50;5109055;28;20038;-58
2022/01/23 10:10:50;;;;;;;4.00;3.28;;;;;;;20.18;24.43;100736.78;5108668;28;20074;-58
2022/01/23 10:13:16;;;;;;;4.88;3.38;;;;;;;20.19;24.48;100740.38;5108491;28;20092;-58
2022/01/23 10:15:41;;;;;;;4.38;3.30;;;;;;;20.19;24.55;100737.59;5109150;28;20047;-58
2022/01/23 10:18:07;;;;;;;4.65;3.50;;;;;;;20.19;24.41;100741.19;5108927;28;20139;-59
2022/01/23 10:20:32;;;;;;;4.10;3.13;;;;;;;20.20;24.38;100737.25;5108444;28;20036;-58
2022/01/23 10:22:59;;;;;;;4.13;3.13;;;;;;;20.20;24.66;100740.03;5108874;28;20066;-58
2022/01/23 10:25:30;;;;;;;4.65;3.22;;;;;;;20.20;24.54;100742.00;5108856;28;20082;-50
2022/01/23 10:28:16;;;;;;;4.20;3.10;;;;;;;20.20;24.49;100734.47;5090008;28;20427;-51
2022/01/23 10:30:46;;;;;;;4.35;2.85;;;;;;;20.21;24.68;100735.28;5108652;28;20051;-49
2022/01/23 10:33:22;;;;;;;4.57;3.30;;;;;;;20.19;24.59;100723.72;5108565;28;20665;-49
2022/01/23 10:36:03;;;;;;;4.55;3.38;;;;;;;20.21;24.65;100726.94;5108428;28;20495;-47
2022/01/23 10:38:45;;;;;;;4.35;3.25;;;;;;;20.22;24.67;100720.28;5108618;28;20089;-48
2022/01/23 10:49:00;;;;;;;3.92;3.05;;;;;;;20.25;24.56;100703.72;5107698;28;20066;-47
2022/01/23 10:51:35;;;;;;;4.05;2.88;;;;;;;20.23;24.65;100694.91;5107432;28;20431;-50
2022/01/23 10:54:12;;;;;;;3.92;2.88;;;;;;;20.24;24.58;100684.63;5108123;28;20194;-48
2022/01/23 10:57:00;;;;;;;4.88;3.30;;;;;;;20.24;24.62;100671.53;5108234;28;20075;-49
2022/01/23 10:59:37;;;;;;;4.07;3.10;;;;;;;20.26;24.81;100665.63;5108275;28;20130;-48
2022/01/23 11:02:05;;;;;;;4.43;3.30;;;;;;;20.26;24.46;100666.44;5108654;28;20054;-48
2022/01/23 11:04:49;;;;;;;4.25;3.10;;;;;;;20.25;24.69;100667.59;5107899;28;20058;-49
2022/01/23 11:07:15;;;;;;;4.38;2.95;;;;;;;20.28;24.73;100666.09;5108144;28;20608;-49
2022/01/23 11:09:41;;;;;;;4.47;3.30;;;;;;;20.28;24.54;100660.53;5107994;28;20530;-48
2022/01/23 11:12:29;;;;;;;3.85;2.95;;;;;;;20.28;24.83;100661.34;5108163;28;20043;-57
2022/01/23 11:17:51;;;;;;;4.65;3.17;;;;;;;20.28;24.64;100655.78;5111876;28;20077;-57
2022/01/23 11:20:45;;;;;;;4.30;3.05;;;;;;;20.29;24.54;100651.06;5110948;28;20052;-57
2022/01/23 11:23:15;;;;;;;3.50;2.70;;;;;;;20.30;24.46;100642.41;5111674;28;20069;-58
2022/01/23 11:26:06;;;;;;;3.88;2.90;;;;;;;20.30;24.69;100645.16;5111504;28;20404;-57
2022/01/23 11:28:41;;;;;;;4.40;3.03;;;;;;;20.30;24.76;100639.63;5110550;28;20096;-58
2022/01/23 11:31:10;;;;;;;3.40;2.60;;;;;;;20.32;24.45;100639.28;5110908;28;20085;-57
2022/01/23 11:33:36;;;;;;;3.70;2.58;;;;;;;20.33;24.59;100627.00;5110649;28;20095;-57
2022/01/23 11:36:02;;;;;;;4.05;2.72;;;;;;;20.32;24.91;100626.19;5110931;28;20031;-58
2022/01/23 11:38:28;;;;;;;4.32;3.05;;;;;;;20.34;24.73;100614.72;5110920;28;20126;-57
2022/01/23 11:54:41;;;;;;;4.88;3.20;;;;;;;20.38;24.75;100592.63;5090208;28;20132;-57
2022/01/23 11:57:36;;;;;;;4.18;2.95;;;;;;;20.37;24.77;100596.56;5089889;28;20453;-57
2022/01/23 12:00:19;;;;;;;4.30;3.05;;;;;;;20.38;24.77;100587.06;5090292;28;20051;-57
2022/01/23 12:03:07;;;;;;;3.90;2.90;;;;;;;20.38;24.67;100581.50;5090582;28;20167;-58
2022/01/23 12:05:34;;;;;;;4.63;2.90;;;;;;;20.40;24.72;100581.97;5090253;28;20067;-47
2022/01/23 12:08:27;;;;;;;4.70;3.13;;;;;;;20.38;24.74;100582.31;5088497;28;20044;-57
2022/01/23 12:11:47;;;;;;;4.05;2.90;;;;;;;20.39;24.57;100575.59;5089426;28;20047;-58
2022/01/23 12:16:59;;;;;;;3.97;2.67;;;;;;;20.39;24.76;100570.06;5090613;28;20044;-57
2022/01/23 12:19:27;;;;;;;4.68;2.88;;;;;;;20.40;24.72;100563.34;5089914;28;20044;-58
2022/01/23 12:21:54;;;;;;;4.40;2.88;;;;;;;20.39;24.79;100567.28;5090385;28;20049;-49
2022/01/23 12:24:22;;;;;;;3.25;2.55;;;;;;;20.41;24.83;100567.72;5090122;28;20100;-47
2022/01/23 12:26:49;;;;;;;3.72;2.75;;;;;;;20.43;24.69;100561.81;5089792;28;20075;-48
2022/01/23 12:29:15;;;;;;;3.40;2.20;;;;;;;20.42;24.80;100551.88;5090098;28;20036;-50
2022/01/23 12:31:41;;;;;;;3.60;2.67;;;;;;;20.42;24.62;100555.47;5089948;28;20054;-47
2022/01/23 12:34:07;;;;;;;3.53;2.50;;;;;;;20.40;24.66;100541.09;5089449;28;20036;-49
2022/01/23 12:36:37;;;;;;;3.60;2.65;;;;;;;20.43;24.71;100542.38;5090228;28;20055;-50
2022/01/23 12:39:09;;;;;;;3.28;2.40;;;;;;;20.43;24.71;100542.38;5090065;28;20492;-49
2022/01/23 12:41:39;;;;;;;3.83;2.50;;;;;;;20.43;24.79;100531.25;5089395;28;20048;-48
2022/01/23 12:44:23;;;;;;;3.67;2.38;;;;;;;20.43;24.55;100523.75;5090013;28;20522;-47
2022/01/23 12:46:57;;;;;;;3.50;2.38;;;;;;;20.43;24.55;100534.88;5089441;28;20047;-47
2022/01/23 12:49:26;;;;;;;3.72;2.45;;;;;;;20.44;24.54;100524.56;5089231;28;20040;-48
2022/01/23 12:51:57;;;;;;;3.42;2.35;;;;;;;20.44;24.78;100513.44;5089421;28;20496;-47
2022/01/23 12:54:26;;;;;;;3.30;2.28;;;;;;;20.45;24.63;100515.09;5089805;28;20044;-47
2022/01/23 12:56:52;;;;;;;3.30;2.40;;;;;;;20.44;24.62;100514.28;5089433;28;20044;-48
2022/01/23 12:59:27;;;;;;;3.63;2.50;;;;;;;20.44;24.81;100500.41;5089888;28;20044;-48
2022/01/23 13:02:07;;;;;;;2.88;2.05;;;;;;;20.47;24.89;100504.44;5087887;28;20454;-48
2022/01/23 13:04:35;;;;;;;4.00;2.40;;;;;;;20.46;24.82;100502.81;5089038;28;20560;-47
2022/01/23 13:07:08;;;;;;;3.30;2.33;;;;;;;20.46;24.85;100495.28;5089642;28;20071;-58
2022/01/23 13:12:29;;;;;;;3.40;2.30;;;;;;;20.45;24.69;100488.13;5088719;28;20052;-58
2022/01/23 13:15:19;;;;;;;3.13;2.10;;;;;;;20.46;24.90;100483.38;5089288;28;20044;-58
2022/01/23 13:32:05;;;;;;;3.28;2.38;;;;;;;20.46;24.79;100455.59;5088896;28;20096;-58
2022/01/23 13:34:38;;;;;;;3.25;2.20;;;;;;;20.45;24.98;100446.44;5098819;27;20124;-57
2022/01/23 13:37:11;;;;;;;3.08;2.17;;;;;;;20.47;25.06;100440.53;5129771;28;20121;-57
2022/01/23 13:40:05;;;;;;;3.53;2.30;;;;;;;20.46;25.03;100445.28;5129500;28;20438;-57
2022/01/23 13:48:21;;;;;;;3.33;2.30;;;;;;;20.47;24.89;100429.41;5129456;28;20074;-48
2022/01/23 13:53:52;;;;;;;3.58;2.28;;;;;;;20.48;24.89;100419.91;5128089;28;20116;-48
2022/01/23 14:02:27;;;;;;;3.00;2.20;;;;;;;20.48;24.92;100417.13;5128985;28;20058;-57
2022/01/23 14:05:03;;;;;;;3.53;2.25;;;;;;;20.49;24.90;100410.41;5129629;28;20047;-57
2022/01/23 14:07:29;;;;;;;3.75;2.20;;;;;;;20.49;24.88;100404.84;5129553;28;20470;-58
2022/01/23 14:09:58;;;;;;;3.58;2.45;;;;;;;20.46;25.08;100408.34;5129307;28;20514;-57
2022/01/23 14:12:25;;;;;;;3.60;2.35;;;;;;;20.49;25.14;100416.78;5129386;28;20095;-58
2022/01/23 14:15:05;;;;;;;2.63;1.98;;;;;;;20.51;24.91;100419.22;5129568;28;20039;-57
2022/01/23 14:17:36;;;;;;;3.03;2.03;;;;;;;20.51;25.00;100419.22;5129198;28;20041;-58
2022/01/23 14:20:16;;;;;;;3.85;2.00;;;;;;;20.50;25.00;100420.34;5129429;28;20055;-57
2022/01/23 14:22:47;;;;;;;2.92;2.00;;;;;;;20.51;25.00;100427.56;5129273;28;20055;-58
2022/01/23 14:25:19;;;;;;;3.50;2.22;;;;;;;20.51;25.14;100424.78;5128793;28;20117;-57
2022/01/23 14:27:48;;;;;;;3.40;2.20;;;;;;;20.52;25.06;100432.78;5129305;28;20707;-57
2022/01/23 14:30:21;;;;;;;3.13;2.08;;;;;;;20.51;25.12;100424.78;5129812;28;20051;-57
2022/01/23 14:32:51;;;;;;;3.42;2.35;;;;;;;20.53;25.11;100430.78;5128542;28;20055;-48
2022/01/23 14:35:18;;;;;;;2.90;2.10;;;;;;;20.53;24.97;100419.69;5129308;28;20474;-49
2022/01/23 14:37:47;;;;;;;3.20;2.00;;;;;;;20.50;25.20;100423.97;5129262;28;20157;-49
2022/01/23 14:40:18;;;;;;;3.22;2.28;;;;;;;20.52;24.99;100420.84;5128702;28;20058;-57
2022/01/23 14:43:04;;;;;;;3.03;2.05;;;;;;;20.52;25.23;100416.09;5129093;28;20043;-57
2022/01/23 14:45:32;;;;;;;3.53;2.00;;;;;;;20.53;25.21;100411.34;5129095;28;20130;-57
2022/01/23 14:47:58;;;;;;;2.97;2.00;;;;;;;20.51;25.13;100405.34;5131951;27;20039;-57
2022/01/23 14:50:25;;;;;;;3.20;2.10;;;;;;;20.52;25.23;100410.53;5132849;28;20400;-58
2022/01/23 14:52:51;;;;;;;2.88;2.05;;;;;;;20.51;25.18;100408.13;5132222;28;20055;-58
2022/01/23 14:55:17;;;;;;;3.35;1.92;;;;;;;20.51;25.10;100408.91;5131801;28;20611;-57
2022/01/23 14:57:44;;;;;;;2.88;1.80;;;;;;;20.53;25.03;100403.00;5132200;28;20047;-58
2022/01/23 15:00:12;;;;;;;3.28;2.08;;;;;;;20.52;25.30;100413.31;5132358;28;20047;-57
2022/01/23 15:02:40;;;;;;;2.90;2.00;;;;;;;20.52;25.20;100415.28;5131947;28;20046;-57